createdAt,value
2022-08-19T00:00:12.092Z,21.46
2022-08-19T00:01:05.898Z,21.46
2022-08-19T00:01:40.951Z,21.46
2022-08-19T00:02:13.970Z,21.46
2022-08-19T00:02:50.051Z,21.46
2022-08-19T00:03:23.564Z,21.46
2022-08-19T00:04:01.346Z,21.45
2022-08-19T00:04:38.241Z,21.45
2022-08-19T00:05:12.984Z,21.45
2022-08-19T00:05:46.767Z,21.43
2022-08-19T00:06:19.969Z,21.44
2022-08-19T00:06:54.730Z,21.45
2022-08-19T00:07:27.890Z,21.43
2022-08-19T00:08:01.223Z,21.43
2022-08-19T00:08:35.178Z,21.42
2022-08-19T00:09:11.931Z,21.42
2022-08-19T00:09:45.150Z,21.42
2022-08-19T00:10:20.413Z,21.42
2022-08-19T00:10:53.584Z,21.41
2022-08-19T00:11:28.889Z,21.41
2022-08-19T00:12:02.940Z,21.40
2022-08-19T00:12:36.830Z,21.39
2022-08-19T00:13:20.318Z,21.39
2022-08-19T00:13:54.325Z,21.38
2022-08-19T00:14:33.649Z,21.37
2022-08-19T00:15:12.893Z,21.36
2022-08-19T00:15:45.983Z,21.35
2022-08-19T00:16:25.161Z,21.34
2022-08-19T00:17:00.008Z,21.33
2022-08-19T00:17:33.376Z,21.33
2022-08-19T00:18:06.417Z,21.32
2022-08-19T00:18:39.502Z,21.31
2022-08-19T00:19:13.764Z,21.30
2022-08-19T00:19:47.262Z,21.29
2022-08-19T00:20:22.965Z,21.28
2022-08-19T00:20:56.672Z,21.27
2022-08-19T00:21:30.079Z,21.26
2022-08-19T00:22:04.481Z,21.26
2022-08-19T00:22:39.251Z,21.25
2022-08-19T00:23:12.702Z,21.24
2022-08-19T00:23:45.866Z,21.24
2022-08-19T00:24:20.161Z,21.23
2022-08-19T00:24:53.533Z,21.22
2022-08-19T00:25:30.407Z,21.20
2022-08-19T00:26:06.296Z,21.19
2022-08-19T00:26:40.787Z,21.17
2022-08-19T00:27:25.657Z,21.17
2022-08-19T00:28:00.895Z,21.16
2022-08-19T00:28:37.072Z,21.15
2022-08-19T00:29:13.360Z,21.14
2022-08-19T00:29:46.480Z,21.13
2022-08-19T00:30:28.399Z,21.12
2022-08-19T00:31:01.938Z,21.11
2022-08-19T00:31:35.374Z,21.10
2022-08-19T00:32:10.716Z,21.10
2022-08-19T00:32:44.156Z,21.09
2022-08-19T00:33:17.805Z,21.08
2022-08-19T00:33:51.784Z,21.07
2022-08-19T00:34:29.932Z,21.06
2022-08-19T00:35:03.159Z,21.06
2022-08-19T00:35:36.359Z,21.05
2022-08-19T00:36:10.570Z,21.04
2022-08-19T00:36:44.730Z,21.04
2022-08-19T00:37:17.929Z,21.04
2022-08-19T00:37:51.884Z,21.04
2022-08-19T00:38:27.266Z,21.03
2022-08-19T00:39:11.386Z,21.03
2022-08-19T00:39:44.599Z,21.02
2022-08-19T00:40:20.526Z,21.02
2022-08-19T00:40:53.735Z,21.03
2022-08-19T00:41:27.879Z,21.03
2022-08-19T00:42:01.131Z,21.03
2022-08-19T00:42:34.456Z,21.03
2022-08-19T00:43:14.321Z,21.02
2022-08-19T00:44:05.610Z,21.01
2022-08-19T00:44:39.831Z,21.01
2022-08-19T00:45:18.466Z,21.02
2022-08-19T00:45:52.938Z,21.02
2022-08-19T00:46:27.073Z,21.03
2022-08-19T00:47:01.067Z,21.03
2022-08-19T00:47:34.466Z,21.02
2022-08-19T00:48:14.751Z,21.02
2022-08-19T00:48:48.436Z,21.01
2022-08-19T00:49:27.868Z,21.00
2022-08-19T00:50:01.207Z,21.00
2022-08-19T00:50:35.711Z,21.00
2022-08-19T00:51:30.841Z,21.00
2022-08-19T00:52:15.378Z,21.01
2022-08-19T00:52:52.352Z,21.01
2022-08-19T00:53:28.759Z,21.01
2022-08-19T00:54:03.959Z,21.00
2022-08-19T00:54:40.546Z,21.00
2022-08-19T00:55:22.048Z,21.00
2022-08-19T00:55:59.535Z,20.99
2022-08-19T00:56:32.791Z,20.99
2022-08-19T00:57:10.691Z,20.99
2022-08-19T00:57:49.595Z,20.97
2022-08-19T00:58:28.753Z,20.96
2022-08-19T00:59:10.527Z,20.96
2022-08-19T01:00:00.325Z,20.95
2022-08-19T01:00:38.429Z,20.95
2022-08-19T01:01:12.206Z,20.96
2022-08-19T01:01:47.208Z,20.96
2022-08-19T01:02:21.057Z,20.96
2022-08-19T01:02:55.300Z,20.94
2022-08-19T01:03:56.914Z,20.94
2022-08-19T01:04:23.480Z,20.93
2022-08-19T01:04:57.455Z,20.91
2022-08-19T01:05:31.201Z,20.89
2022-08-19T01:06:04.396Z,20.88
2022-08-19T01:06:39.506Z,20.87
2022-08-19T01:07:15.212Z,20.85
2022-08-19T01:07:52.884Z,20.84
2022-08-19T01:08:26.282Z,20.83
2022-08-19T01:09:00.878Z,20.82
2022-08-19T01:09:35.336Z,20.82
2022-08-19T01:10:17.681Z,20.80
2022-08-19T01:10:59.442Z,20.80
2022-08-19T01:11:42.299Z,20.80
2022-08-19T01:12:17.009Z,20.81
2022-08-19T01:12:52.309Z,20.82
2022-08-19T01:13:49.395Z,20.83
2022-08-19T01:14:25.518Z,20.82
2022-08-19T01:15:00.243Z,20.83
2022-08-19T01:15:39.683Z,20.84
2022-08-19T01:16:14.416Z,20.84
2022-08-19T01:16:48.303Z,20.83
2022-08-19T01:17:22.390Z,20.83
2022-08-19T01:17:58.200Z,20.84
2022-08-19T01:18:33.697Z,20.83
2022-08-19T01:19:26.353Z,20.83
2022-08-19T01:19:59.839Z,20.83
2022-08-19T01:20:35.794Z,20.82
2022-08-19T01:21:48.677Z,20.81
2022-08-19T01:22:30.063Z,20.80
2022-08-19T01:23:04.620Z,20.80
2022-08-19T01:23:46.607Z,20.78
2022-08-19T01:24:19.829Z,20.77
2022-08-19T01:24:53.568Z,20.76
2022-08-19T01:25:36.403Z,20.74
2022-08-19T01:26:15.059Z,20.72
2022-08-19T01:26:48.866Z,20.69
2022-08-19T01:27:22.411Z,20.67
2022-08-19T01:27:55.742Z,20.65
2022-08-19T01:28:39.865Z,20.62
2022-08-19T01:29:13.993Z,20.60
2022-08-19T01:29:49.040Z,20.58
2022-08-19T01:30:26.728Z,20.56
2022-08-19T01:31:00.105Z,20.54
2022-08-19T01:31:33.553Z,20.53
2022-08-19T01:32:09.052Z,20.53
2022-08-19T01:33:03.230Z,20.52
2022-08-19T01:33:36.484Z,20.52
2022-08-19T01:34:10.326Z,20.53
2022-08-19T01:34:48.169Z,20.52
2022-08-19T01:35:24.639Z,20.54
2022-08-19T01:36:10.525Z,20.54
2022-08-19T01:36:50.433Z,20.56
2022-08-19T01:37:24.918Z,20.56
2022-08-19T01:38:07.231Z,20.56
2022-08-19T01:38:44.640Z,20.57
2022-08-19T01:39:24.289Z,20.57
2022-08-19T01:39:58.188Z,20.57
2022-08-19T01:40:34.573Z,20.57
2022-08-19T01:41:10.819Z,20.57
2022-08-19T01:41:44.694Z,20.57
2022-08-19T01:42:18.434Z,20.57
2022-08-19T01:42:52.409Z,20.57
2022-08-19T01:43:25.789Z,20.57
2022-08-19T01:44:16.914Z,20.56
2022-08-19T01:44:52.349Z,20.55
2022-08-19T01:45:28.843Z,20.56
2022-08-19T01:46:02.098Z,20.56
2022-08-19T01:46:35.652Z,20.56
2022-08-19T01:47:10.877Z,20.55
2022-08-19T01:47:44.402Z,20.55
2022-08-19T01:48:31.566Z,20.55
2022-08-19T01:49:07.286Z,20.55
2022-08-19T01:49:40.610Z,20.55
2022-08-19T01:50:15.321Z,20.55
2022-08-19T01:50:49.194Z,20.53
2022-08-19T01:51:22.649Z,20.53
2022-08-19T01:51:56.239Z,20.50
2022-08-19T01:52:29.345Z,20.50
2022-08-19T01:53:06.730Z,20.48
2022-08-19T01:53:41.932Z,20.46
2022-08-19T01:54:23.394Z,20.45
2022-08-19T01:55:01.248Z,20.43
2022-08-19T01:55:40.846Z,20.43
2022-08-19T01:56:14.807Z,20.42
2022-08-19T01:56:50.089Z,20.41
2022-08-19T01:57:24.401Z,20.40
2022-08-19T01:58:01.317Z,20.40
2022-08-19T01:58:46.360Z,20.39
2022-08-19T01:59:23.461Z,20.38
2022-08-19T01:59:57.947Z,20.38
2022-08-19T02:00:33.714Z,20.37
2022-08-19T02:01:08.674Z,20.37
2022-08-19T02:01:42.491Z,20.36
2022-08-19T02:02:15.853Z,20.36
2022-08-19T02:02:49.189Z,20.35
2022-08-19T02:03:22.410Z,20.34
2022-08-19T02:03:56.880Z,20.33
2022-08-19T02:04:30.251Z,20.32
2022-08-19T02:05:05.420Z,20.31
2022-08-19T02:05:39.896Z,20.30
2022-08-19T02:06:13.444Z,20.29
2022-08-19T02:06:46.612Z,20.29
2022-08-19T02:07:23.033Z,20.27
2022-08-19T02:07:57.721Z,20.27
2022-08-19T02:08:31.715Z,20.26
2022-08-19T02:09:09.389Z,20.25
2022-08-19T02:09:42.899Z,20.25
2022-08-19T02:10:21.012Z,20.24
2022-08-19T02:10:54.949Z,20.23
2022-08-19T02:11:32.952Z,20.22
2022-08-19T02:12:09.080Z,20.21
2022-08-19T02:12:42.298Z,20.21
2022-08-19T02:13:15.400Z,20.20
2022-08-19T02:13:50.635Z,20.19
2022-08-19T02:14:24.715Z,20.18
2022-08-19T02:14:58.348Z,20.17
2022-08-19T02:15:31.499Z,20.16
2022-08-19T02:16:04.697Z,20.15
2022-08-19T02:16:38.752Z,20.14
2022-08-19T02:17:11.760Z,20.13
2022-08-19T02:17:44.978Z,20.13
2022-08-19T02:18:18.201Z,20.12
2022-08-19T02:18:52.332Z,20.12
2022-08-19T02:19:25.570Z,20.11
2022-08-19T02:19:58.999Z,20.10
2022-08-19T02:20:32.405Z,20.10
2022-08-19T02:21:05.887Z,20.09
2022-08-19T02:21:39.106Z,20.09
2022-08-19T02:22:12.199Z,20.08
2022-08-19T02:22:45.502Z,20.07
2022-08-19T02:23:18.982Z,20.06
2022-08-19T02:23:52.262Z,20.05
2022-08-19T02:24:25.951Z,20.05
2022-08-19T02:24:59.176Z,20.03
2022-08-19T02:25:32.473Z,20.03
2022-08-19T02:26:06.333Z,20.02
2022-08-19T02:26:39.431Z,20.01
2022-08-19T02:27:12.951Z,20.01
2022-08-19T02:27:46.194Z,20.01
2022-08-19T02:28:19.433Z,20.00
2022-08-19T02:28:52.460Z,20.00
2022-08-19T02:29:25.618Z,20.00
2022-08-19T02:29:59.017Z,20.00
2022-08-19T02:30:32.577Z,20.01
2022-08-19T02:31:15.870Z,20.01
2022-08-19T02:31:49.329Z,20.01
2022-08-19T02:32:22.723Z,20.02
2022-08-19T02:32:56.165Z,20.02
2022-08-19T02:33:30.676Z,20.02
2022-08-19T02:34:04.318Z,20.03
2022-08-19T02:34:37.486Z,20.03
2022-08-19T02:35:12.339Z,20.02
2022-08-19T02:35:47.952Z,20.02
2022-08-19T02:36:21.363Z,20.02
2022-08-19T02:36:55.312Z,20.02
2022-08-19T02:37:47.587Z,20.01
2022-08-19T02:38:26.648Z,20.01
2022-08-19T02:39:00.002Z,20.01
2022-08-19T02:39:33.620Z,20.02
2022-08-19T02:40:12.740Z,20.01
2022-08-19T02:40:53.011Z,20.01
2022-08-19T02:41:29.305Z,20.01
2022-08-19T02:42:03.316Z,20.01
2022-08-19T02:42:36.628Z,20.01
2022-08-19T02:43:10.428Z,20.00
2022-08-19T02:44:22.927Z,20.00
2022-08-19T02:44:38.334Z,19.99
2022-08-19T02:45:11.772Z,19.99
2022-08-19T02:45:45.086Z,20.00
2022-08-19T02:46:19.278Z,19.99
2022-08-19T02:46:52.631Z,19.98
2022-08-19T02:47:26.250Z,19.97
2022-08-19T02:47:59.344Z,19.97
2022-08-19T02:48:34.168Z,19.97
2022-08-19T02:49:09.338Z,19.96
2022-08-19T02:49:43.047Z,19.96
2022-08-19T02:50:16.206Z,19.96
2022-08-19T02:50:56.516Z,19.96
2022-08-19T02:51:40.044Z,19.96
2022-08-19T02:52:13.710Z,19.97
2022-08-19T02:52:46.874Z,19.97
2022-08-19T02:53:20.295Z,19.97
2022-08-19T02:53:54.716Z,19.98
2022-08-19T02:54:28.553Z,19.98
2022-08-19T02:55:02.466Z,19.97
2022-08-19T02:55:46.028Z,19.98
2022-08-19T02:56:21.162Z,19.98
2022-08-19T02:56:54.335Z,19.98
2022-08-19T02:57:28.784Z,19.98
2022-08-19T02:58:02.734Z,19.99
2022-08-19T02:58:41.979Z,19.99
2022-08-19T02:59:16.444Z,19.99
2022-08-19T02:59:49.564Z,19.98
2022-08-19T03:00:22.777Z,19.99
2022-08-19T03:00:58.123Z,19.99
2022-08-19T03:01:33.718Z,19.99
2022-08-19T03:02:06.810Z,19.99
2022-08-19T03:02:40.690Z,19.99
2022-08-19T03:03:13.888Z,19.99
2022-08-19T03:03:47.881Z,19.99
2022-08-19T03:04:20.963Z,19.98
2022-08-19T03:04:54.123Z,19.98
2022-08-19T03:05:55.761Z,19.98
2022-08-19T03:06:23.021Z,19.98
2022-08-19T03:06:59.569Z,19.99
2022-08-19T03:07:36.436Z,19.99
2022-08-19T03:08:13.708Z,19.99
2022-08-19T03:08:48.614Z,20.00
2022-08-19T03:09:22.086Z,19.99
2022-08-19T03:09:55.380Z,19.99
2022-08-19T03:10:29.122Z,19.99
2022-08-19T03:11:02.255Z,19.99
2022-08-19T03:11:36.582Z,19.98
2022-08-19T03:12:09.789Z,19.99
2022-08-19T03:12:43.058Z,19.99
2022-08-19T03:13:19.613Z,19.99
2022-08-19T03:13:54.983Z,19.99
2022-08-19T03:14:29.148Z,19.99
2022-08-19T03:15:02.324Z,20.00
2022-08-19T03:15:35.464Z,20.00
2022-08-19T03:16:08.559Z,20.00
2022-08-19T03:16:53.591Z,20.00
2022-08-19T03:17:26.711Z,20.01
2022-08-19T03:17:59.802Z,20.02
2022-08-19T03:18:32.994Z,20.04
2022-08-19T03:19:06.143Z,20.06
2022-08-19T03:19:39.552Z,20.09
2022-08-19T03:20:12.778Z,20.11
2022-08-19T03:20:49.310Z,20.13
2022-08-19T03:21:26.840Z,20.15
2022-08-19T03:31:43.423Z,20.39
2022-08-19T03:32:32.229Z,20.39
2022-08-19T03:33:07.160Z,20.39
2022-08-19T03:33:43.084Z,20.39
2022-08-19T03:34:27.450Z,20.40
2022-08-19T03:35:00.941Z,20.39
2022-08-19T03:35:34.566Z,20.39
2022-08-19T03:36:16.318Z,20.40
2022-08-19T03:36:49.853Z,20.40
2022-08-19T03:37:23.686Z,20.40
2022-08-19T03:37:58.230Z,20.41
2022-08-19T03:38:31.688Z,20.41
2022-08-19T03:39:05.691Z,20.42
2022-08-19T03:39:40.771Z,20.43
2022-08-19T03:40:16.710Z,20.44
2022-08-19T03:40:50.196Z,20.44
2022-08-19T03:41:26.055Z,20.44
2022-08-19T03:42:38.643Z,20.46
2022-08-19T03:43:11.395Z,20.47
2022-08-19T03:43:48.066Z,20.50
2022-08-19T03:44:23.581Z,20.50
2022-08-19T03:44:56.892Z,20.51
2022-08-19T03:45:30.425Z,20.51
2022-08-19T03:46:06.553Z,20.53
2022-08-19T03:46:39.777Z,20.53
2022-08-19T03:47:18.141Z,20.54
2022-08-19T03:47:51.282Z,20.55
2022-08-19T03:48:24.962Z,20.55
2022-08-19T03:49:00.464Z,20.56
2022-08-19T03:49:36.875Z,20.58
2022-08-19T03:50:10.548Z,20.58
2022-08-19T03:50:44.621Z,20.59
2022-08-19T03:51:30.706Z,20.60
2022-08-19T03:52:08.608Z,20.62
2022-08-19T03:52:45.438Z,20.63
2022-08-19T03:53:20.213Z,20.64
2022-08-19T03:53:56.019Z,20.65
2022-08-19T03:54:30.250Z,20.66
2022-08-19T03:55:04.558Z,20.67
2022-08-19T03:55:42.558Z,20.68
2022-08-19T03:56:16.604Z,20.69
2022-08-19T03:56:51.975Z,20.70
2022-08-19T03:57:25.159Z,20.71
2022-08-19T03:58:05.544Z,20.71
2022-08-19T03:58:38.956Z,20.73
2022-08-19T03:59:23.648Z,20.74
2022-08-19T03:59:56.786Z,20.75
2022-08-19T04:00:46.994Z,20.77
2022-08-19T04:01:34.890Z,20.78
2022-08-19T04:02:12.196Z,20.79
2022-08-19T04:02:56.513Z,20.80
2022-08-19T04:03:31.948Z,20.82
2022-08-19T04:04:05.767Z,20.82
2022-08-19T04:04:41.511Z,20.83
2022-08-19T04:05:15.691Z,20.84
2022-08-19T04:05:48.918Z,20.85
2022-08-19T04:06:25.441Z,20.85
2022-08-19T04:06:58.657Z,20.86
2022-08-19T04:07:31.853Z,20.88
2022-08-19T04:08:09.702Z,20.89
2022-08-19T04:08:47.396Z,20.88
2022-08-19T04:09:21.795Z,20.89
2022-08-19T04:09:55.083Z,20.91
2022-08-19T04:10:29.922Z,20.92
2022-08-19T04:11:07.853Z,20.92
2022-08-19T04:11:45.155Z,20.94
2022-08-19T04:12:18.725Z,20.96
2022-08-19T04:12:52.071Z,20.96
2022-08-19T04:13:25.316Z,20.98
2022-08-19T04:13:58.714Z,20.98
2022-08-19T04:14:32.900Z,20.99
2022-08-19T04:15:07.331Z,21.00
2022-08-19T04:15:44.750Z,21.01
2022-08-19T04:16:21.074Z,21.03
2022-08-19T04:17:06.142Z,21.04
2022-08-19T04:17:39.327Z,21.05
2022-08-19T04:18:12.629Z,21.07
2022-08-19T04:18:46.018Z,21.07
2022-08-19T04:19:20.391Z,21.09
2022-08-19T04:19:53.609Z,21.10
2022-08-19T04:20:27.328Z,21.11
2022-08-19T04:21:02.077Z,21.12
2022-08-19T04:21:35.811Z,21.14
2022-08-19T04:22:09.076Z,21.15
2022-08-19T04:22:42.400Z,21.17
2022-08-19T04:23:16.292Z,21.19
2022-08-19T04:23:50.064Z,21.20
2022-08-19T04:24:26.377Z,21.22
2022-08-19T04:24:59.646Z,21.24
2022-08-19T04:25:38.497Z,21.26
2022-08-19T04:26:35.096Z,21.29
2022-08-19T04:27:08.339Z,21.31
2022-08-19T04:27:48.064Z,21.34
2022-08-19T04:28:21.174Z,21.37
2022-08-19T04:28:54.956Z,21.39
2022-08-19T04:29:28.807Z,21.40
2022-08-19T04:30:02.028Z,21.42
2022-08-19T04:31:01.221Z,21.43
2022-08-19T04:31:36.975Z,21.45
2022-08-19T04:32:10.240Z,21.47
2022-08-19T04:32:44.944Z,21.47
2022-08-19T04:33:23.995Z,21.50
2022-08-19T04:34:02.707Z,21.51
2022-08-19T04:34:35.977Z,21.53
2022-08-19T04:35:17.473Z,21.54
2022-08-19T04:35:54.000Z,21.55
2022-08-19T04:36:34.281Z,21.56
2022-08-19T04:37:14.466Z,21.57
2022-08-19T04:37:47.800Z,21.59
2022-08-19T04:38:25.840Z,21.59
2022-08-19T04:39:02.131Z,21.59
2022-08-19T04:39:54.108Z,21.60
2022-08-19T04:40:52.399Z,21.59
2022-08-19T04:41:45.450Z,21.59
2022-08-19T04:42:39.021Z,21.60
2022-08-19T04:43:15.152Z,21.61
2022-08-19T04:43:51.731Z,21.63
2022-08-19T04:44:25.208Z,21.64
2022-08-19T04:45:00.026Z,21.65
2022-08-19T04:45:39.460Z,21.66
2022-08-19T04:46:37.534Z,21.67
2022-08-19T04:47:11.174Z,21.67
2022-08-19T04:47:47.072Z,21.68
2022-08-19T04:48:28.138Z,21.69
2022-08-19T04:49:10.343Z,21.69
2022-08-19T04:49:43.827Z,21.71
2022-08-19T04:50:17.108Z,21.71
2022-08-19T04:50:50.410Z,21.72
2022-08-19T04:51:24.312Z,21.73
2022-08-19T04:51:57.457Z,21.74
2022-08-19T04:52:33.424Z,21.75
2022-08-19T04:53:06.509Z,21.76
2022-08-19T04:53:43.540Z,21.78
2022-08-19T04:54:37.248Z,21.79
2022-08-19T04:55:13.824Z,21.82
2022-08-19T04:55:46.886Z,21.83
2022-08-19T04:56:27.337Z,21.84
2022-08-19T04:57:00.520Z,21.86
2022-08-19T04:57:33.599Z,21.88
2022-08-19T04:58:07.880Z,21.89
2022-08-19T04:58:43.779Z,21.91
2022-08-19T04:59:19.989Z,21.93
2022-08-19T04:59:57.331Z,21.95
2022-08-19T05:00:30.579Z,21.96
2022-08-19T05:01:05.206Z,21.99
2022-08-19T05:01:38.464Z,22.00
2022-08-19T05:02:11.736Z,22.02
2022-08-19T05:02:44.855Z,22.05
2022-08-19T05:03:18.615Z,22.07
2022-08-19T05:03:51.868Z,22.08
2022-08-19T05:04:24.909Z,22.10
2022-08-19T05:05:00.860Z,22.11
2022-08-19T05:05:45.083Z,22.12
2022-08-19T05:06:21.073Z,22.14
2022-08-19T05:07:00.913Z,22.15
2022-08-19T05:07:35.408Z,22.16
2022-08-19T05:08:09.004Z,22.17
2022-08-19T05:08:44.606Z,22.18
2022-08-19T05:09:18.215Z,22.19
2022-08-19T05:09:58.323Z,22.20
2022-08-19T05:10:32.434Z,22.21
2022-08-19T05:11:15.711Z,22.21
2022-08-19T05:11:54.140Z,22.23
2022-08-19T05:12:30.003Z,22.23
2022-08-19T05:13:03.915Z,22.25
2022-08-19T05:13:37.039Z,22.26
2022-08-19T05:14:14.219Z,22.27
2022-08-19T05:14:48.512Z,22.29
2022-08-19T05:15:21.718Z,22.29
2022-08-19T05:15:58.348Z,22.31
2022-08-19T05:16:32.725Z,22.33
2022-08-19T05:17:26.112Z,22.34
2022-08-19T05:18:18.190Z,22.36
2022-08-19T05:19:13.779Z,22.38
2022-08-19T05:20:25.790Z,22.40
2022-08-19T05:21:17.597Z,22.42
2022-08-19T05:22:09.776Z,22.45
2022-08-19T05:22:46.586Z,22.47
2022-08-19T05:23:22.794Z,22.49
2022-08-19T05:23:56.432Z,22.50
2022-08-19T05:24:30.631Z,22.52
2022-08-19T05:25:16.368Z,22.54
2022-08-19T05:25:49.757Z,22.57
2022-08-19T05:26:23.128Z,22.59
2022-08-19T05:27:00.352Z,22.61
2022-08-19T05:27:34.013Z,22.63
2022-08-19T05:28:07.096Z,22.64
2022-08-19T05:28:40.492Z,22.65
2022-08-19T05:29:16.828Z,22.67
2022-08-19T05:29:49.944Z,22.68
2022-08-19T05:30:30.241Z,22.69
2022-08-19T05:31:15.728Z,22.71
2022-08-19T05:31:53.121Z,22.72
2022-08-19T05:32:26.423Z,22.73
2022-08-19T05:32:59.725Z,22.75
2022-08-19T05:33:32.897Z,22.76
2022-08-19T05:34:07.417Z,22.78
2022-08-19T05:34:53.748Z,22.79
2022-08-19T05:35:27.031Z,22.80
2022-08-19T05:36:00.511Z,22.82
2022-08-19T05:36:44.421Z,22.84
2022-08-19T05:37:18.363Z,22.87
2022-08-19T05:37:52.694Z,22.88
2022-08-19T05:38:32.182Z,22.90
2022-08-19T05:39:05.765Z,22.91
2022-08-19T05:39:39.559Z,22.94
2022-08-19T05:40:12.927Z,22.96
2022-08-19T05:40:48.268Z,22.98
2022-08-19T05:41:24.505Z,23.01
2022-08-19T05:42:00.665Z,23.04
2022-08-19T05:42:33.770Z,23.05
2022-08-19T05:43:09.254Z,23.08
2022-08-19T05:43:42.968Z,23.10
2022-08-19T05:44:18.027Z,23.12
2022-08-19T05:44:52.391Z,23.14
2022-08-19T05:45:26.087Z,23.16
2022-08-19T05:45:59.637Z,23.17
2022-08-19T05:46:33.600Z,23.19
2022-08-19T05:47:09.702Z,23.22
2022-08-19T05:47:42.850Z,23.24
2022-08-19T05:48:16.131Z,23.26
2022-08-19T05:48:49.889Z,23.28
2022-08-19T05:49:28.483Z,23.30
2022-08-19T05:50:05.032Z,23.33
2022-08-19T05:50:40.652Z,23.35
2022-08-19T05:51:14.601Z,23.38
2022-08-19T05:51:51.235Z,23.40
2022-08-19T05:52:25.893Z,23.41
2022-08-19T05:52:59.931Z,23.43
2022-08-19T05:53:34.924Z,23.45
2022-08-19T05:54:14.627Z,23.48
2022-08-19T05:54:51.445Z,23.50
2022-08-19T05:55:25.134Z,23.52
2022-08-19T05:55:58.404Z,23.54
2022-08-19T05:56:32.970Z,23.57
2022-08-19T05:57:06.275Z,23.58
2022-08-19T05:57:39.767Z,23.60
2022-08-19T05:58:13.012Z,23.62
2022-08-19T05:58:46.755Z,23.65
2022-08-19T05:59:22.684Z,23.67
2022-08-19T06:00:01.486Z,23.69
2022-08-19T06:00:36.039Z,23.72
2022-08-19T06:01:17.711Z,23.74
2022-08-19T06:01:52.816Z,23.76
2022-08-19T06:02:29.929Z,23.78
2022-08-19T06:03:11.866Z,23.81
2022-08-19T06:03:48.917Z,23.83
2022-08-19T06:04:23.330Z,23.85
2022-08-19T06:04:56.704Z,23.88
2022-08-19T06:05:31.554Z,23.91
2022-08-19T06:06:06.668Z,23.93
2022-08-19T06:06:40.429Z,23.95
2022-08-19T06:07:14.080Z,23.98
2022-08-19T06:07:48.311Z,24.00
2022-08-19T06:08:33.490Z,24.02
2022-08-19T06:09:09.183Z,24.05
2022-08-19T06:09:59.047Z,24.07
2022-08-19T06:10:34.813Z,24.11
2022-08-19T06:11:55.995Z,24.14
2022-08-19T06:12:33.000Z,24.22
2022-08-19T06:13:07.126Z,24.25
2022-08-19T06:13:40.385Z,24.27
2022-08-19T06:14:18.366Z,24.30
2022-08-19T06:14:56.036Z,24.33
2022-08-19T06:15:34.995Z,24.37
2022-08-19T06:16:08.624Z,24.40
2022-08-19T06:16:43.507Z,24.42
2022-08-19T06:17:17.282Z,24.45
2022-08-19T06:17:52.450Z,24.47
2022-08-19T06:18:25.954Z,24.49
2022-08-19T06:19:01.879Z,24.50
2022-08-19T06:19:41.057Z,24.52
2022-08-19T06:20:16.230Z,24.53
2022-08-19T06:20:55.993Z,24.54
2022-08-19T06:21:31.361Z,24.56
2022-08-19T06:22:05.907Z,24.58
2022-08-19T06:22:44.339Z,24.59
2022-08-19T06:23:17.919Z,24.59
2022-08-19T06:23:53.361Z,24.62
2022-08-19T06:24:29.073Z,24.62
2022-08-19T06:25:02.682Z,24.64
2022-08-19T06:25:37.206Z,24.65
2022-08-19T06:26:13.797Z,24.66
2022-08-19T06:27:27.629Z,24.69
2022-08-19T06:28:16.270Z,24.70
2022-08-19T06:28:50.156Z,24.73
2022-08-19T06:29:25.608Z,24.74
2022-08-19T06:29:58.869Z,24.75
2022-08-19T06:30:32.256Z,24.77
2022-08-19T06:31:08.710Z,24.78
2022-08-19T06:31:45.596Z,24.79
2022-08-19T06:32:20.486Z,24.80
2022-08-19T06:32:53.781Z,24.80
2022-08-19T06:33:27.198Z,24.81
2022-08-19T06:34:05.104Z,24.83
2022-08-19T06:34:38.378Z,24.84
2022-08-19T06:35:12.517Z,24.85
2022-08-19T06:36:37.389Z,24.88
2022-08-19T06:37:10.661Z,24.89
2022-08-19T06:37:44.228Z,24.91
2022-08-19T06:38:17.412Z,24.94
2022-08-19T06:38:50.712Z,24.99
2022-08-19T06:39:26.812Z,25.02
2022-08-19T06:40:00.404Z,25.04
2022-08-19T06:40:33.701Z,25.06
2022-08-19T06:41:08.127Z,25.08
2022-08-19T06:41:49.364Z,25.11
2022-08-19T06:42:25.210Z,25.12
2022-08-19T06:43:01.267Z,25.14
2022-08-19T06:43:41.223Z,25.16
2022-08-19T06:44:16.589Z,25.17
2022-08-19T06:44:53.586Z,25.19
2022-08-19T06:45:35.507Z,25.20
2022-08-19T06:46:15.049Z,25.22
2022-08-19T06:46:53.582Z,25.24
2022-08-19T06:47:29.071Z,25.25
2022-08-19T06:48:02.634Z,25.26
2022-08-19T06:48:44.952Z,25.28
2022-08-19T06:49:19.532Z,25.30
2022-08-19T06:50:02.918Z,25.31
2022-08-19T06:50:36.762Z,25.34
2022-08-19T06:51:16.842Z,25.35
2022-08-19T06:51:52.610Z,25.38
2022-08-19T06:52:25.820Z,25.39
2022-08-19T06:53:03.593Z,25.41
2022-08-19T06:53:38.271Z,25.43
2022-08-19T06:54:19.001Z,25.46
2022-08-19T06:54:55.763Z,25.48
2022-08-19T06:55:31.509Z,25.50
2022-08-19T06:56:06.895Z,25.52
2022-08-19T06:56:40.243Z,25.54
2022-08-19T06:57:16.301Z,25.57
2022-08-19T06:57:52.269Z,25.60
2022-08-19T06:58:25.628Z,25.61
2022-08-19T06:58:59.968Z,25.63
2022-08-19T06:59:36.333Z,25.65
2022-08-19T07:00:15.041Z,25.68
2022-08-19T07:00:48.200Z,25.72
2022-08-19T07:01:21.756Z,25.76
2022-08-19T07:01:57.973Z,25.80
2022-08-19T07:02:31.442Z,25.84
2022-08-19T07:03:08.240Z,25.87
2022-08-19T07:03:42.098Z,25.90
2022-08-19T07:04:17.781Z,25.92
2022-08-19T07:04:52.827Z,25.95
2022-08-19T07:05:26.421Z,25.97
2022-08-19T07:06:09.815Z,26.00
2022-08-19T07:06:55.060Z,26.04
2022-08-19T07:07:28.661Z,26.08
2022-08-19T07:08:04.964Z,26.12
2022-08-19T07:08:42.373Z,26.16
2022-08-19T07:09:19.424Z,26.20
2022-08-19T07:09:59.974Z,26.24
2022-08-19T07:10:36.449Z,26.27
2022-08-19T07:11:11.763Z,26.30
2022-08-19T07:11:50.418Z,26.32
2022-08-19T07:12:23.748Z,26.34
2022-08-19T07:12:57.261Z,26.35
2022-08-19T07:13:30.785Z,26.36
2022-08-19T07:14:04.264Z,26.37
2022-08-19T07:14:38.877Z,26.39
2022-08-19T07:15:13.974Z,26.39
2022-08-19T07:15:48.204Z,26.39
2022-08-19T07:16:29.131Z,26.39
2022-08-19T07:17:03.144Z,26.39
2022-08-19T07:17:39.141Z,26.39
2022-08-19T07:18:12.474Z,26.40
2022-08-19T07:18:45.667Z,26.40
2022-08-19T07:19:21.356Z,26.42
2022-08-19T07:19:54.849Z,26.42
2022-08-19T07:20:29.537Z,26.44
2022-08-19T07:21:11.160Z,26.44
2022-08-19T07:21:44.687Z,26.45
2022-08-19T07:22:19.237Z,26.47
2022-08-19T07:22:52.651Z,26.48
2022-08-19T07:23:27.115Z,26.48
2022-08-19T07:24:04.056Z,26.51
2022-08-19T07:24:40.410Z,26.53
2022-08-19T07:25:32.077Z,26.55
2022-08-19T07:26:10.753Z,26.56
2022-08-19T07:26:45.079Z,26.57
2022-08-19T07:27:18.881Z,26.57
2022-08-19T07:27:58.184Z,26.59
2022-08-19T07:28:33.395Z,26.61
2022-08-19T07:29:08.255Z,26.62
2022-08-19T07:29:41.821Z,26.63
2022-08-19T07:30:15.413Z,26.65
2022-08-19T07:30:49.999Z,26.66
2022-08-19T07:31:28.423Z,26.67
2022-08-19T07:32:05.773Z,26.69
2022-08-19T07:32:45.106Z,26.71
2022-08-19T07:33:19.425Z,26.73
2022-08-19T07:33:56.497Z,26.76
2022-08-19T07:34:31.768Z,26.79
2022-08-19T07:35:06.073Z,26.80
2022-08-19T07:35:39.410Z,26.82
2022-08-19T07:36:15.601Z,26.83
2022-08-19T07:36:48.901Z,26.85
2022-08-19T07:37:22.086Z,26.86
2022-08-19T07:37:55.839Z,26.88
2022-08-19T07:38:29.321Z,26.88
2022-08-19T07:39:09.735Z,26.89
2022-08-19T07:39:43.063Z,26.91
2022-08-19T07:40:16.750Z,26.91
2022-08-19T07:40:50.059Z,26.93
2022-08-19T07:41:26.543Z,26.94
2022-08-19T07:42:02.139Z,26.96
2022-08-19T07:42:35.536Z,26.98
2022-08-19T07:43:12.337Z,26.99
2022-08-19T07:43:48.942Z,27.02
2022-08-19T07:44:22.748Z,27.02
2022-08-19T07:44:56.576Z,27.04
2022-08-19T07:45:30.665Z,27.04
2022-08-19T07:46:04.480Z,27.07
2022-08-19T07:46:41.477Z,27.08
2022-08-19T07:47:48.215Z,27.10
2022-08-19T07:48:10.145Z,27.12
2022-08-19T07:48:46.824Z,27.14
2022-08-19T07:49:21.647Z,27.16
2022-08-19T07:49:55.221Z,27.19
2022-08-19T07:50:28.599Z,27.21
2022-08-19T07:51:04.483Z,27.24
2022-08-19T07:51:38.449Z,27.27
2022-08-19T07:52:12.404Z,27.30
2022-08-19T07:52:49.021Z,27.33
2022-08-19T07:53:24.158Z,27.35
2022-08-19T07:53:57.915Z,27.38
2022-08-19T07:54:35.811Z,27.42
2022-08-19T07:55:40.334Z,27.44
2022-08-19T07:56:07.380Z,27.47
2022-08-19T07:56:41.589Z,27.49
2022-08-19T07:57:15.409Z,27.51
2022-08-19T07:57:49.822Z,27.51
2022-08-19T07:58:24.438Z,27.52
2022-08-19T07:58:58.393Z,27.53
2022-08-19T07:59:32.480Z,27.53
2022-08-19T08:00:08.253Z,27.55